sensor_id;sensor_type;location;lat;lon;timestamp;P1;durP1;ratioP1;P2;durP2;ratioP2
39362;SDS011;25088;43.238;23.110;2023-11-19T00:01:25;0.30;;;0.30;;
39362;SDS011;25088;43.238;23.110;2023-11-19T00:03:51;0.30;;;0.30;;
39362;SDS011;25088;43.238;23.110;2023-11-19T00:06:17;0.30;;;0.30;;
39362;SDS011;25088;43.238;23.110;2023-11-19T00:08:42;0.30;;;0.30;;
39362;SDS011;25088;43.238;23.110;2023-11-19T00:11:11;0.40;;;0.40;;
39362;SDS011;25088;43.238;23.110;2023-11-19T00:13:40;0.38;;;0.38;;
39362;SDS011;25088;43.238;23.110;2023-11-19T00:16:06;0.30;;;0.30;;
39362;SDS011;25088;43.238;23.110;2023-11-19T00:18:32;0.30;;;0.30;;
39362;SDS011;25088;43.238;23.110;2023-11-19T00:20:58;0.40;;;0.40;;
39362;SDS011;25088;43.238;23.110;2023-11-19T00:23:23;0.30;;;0.30;;
39362;SDS011;25088;43.238;23.110;2023-11-19T00:25:48;0.30;;;0.30;;
39362;SDS011;25088;43.238;23.110;2023-11-19T00:28:14;0.40;;;0.40;;
39362;SDS011;25088;43.238;23.110;2023-11-19T00:30:39;0.30;;;0.30;;
39362;SDS011;25088;43.238;23.110;2023-11-19T00:33:08;0.30;;;0.30;;
39362;SDS011;25088;43.238;23.110;2023-11-19T00:35:33;0.30;;;0.30;;
39362;SDS011;25088;43.238;23.110;2023-11-19T00:37:59;0.40;;;0.40;;
39362;SDS011;25088;43.238;23.110;2023-11-19T00:40:25;0.30;;;0.30;;
39362;SDS011;25088;43.238;23.110;2023-11-19T00:42:50;0.30;;;0.30;;
39362;SDS011;25088;43.238;23.110;2023-11-19T00:45:16;0.30;;;0.30;;
39362;SDS011;25088;43.238;23.110;2023-11-19T00:47:41;0.30;;;0.30;;
39362;SDS011;25088;43.238;23.110;2023-11-19T00:50:08;0.30;;;0.30;;
39362;SDS011;25088;43.238;23.110;2023-11-19T00:52:36;0.30;;;0.30;;
39362;SDS011;25088;43.238;23.110;2023-11-19T00:55:03;0.30;;;0.30;;
39362;SDS011;25088;43.238;23.110;2023-11-19T00:57:30;0.30;;;0.30;;
39362;SDS011;25088;43.238;23.110;2023-11-19T00:59:57;0.30;;;0.30;;
39362;SDS011;25088;43.238;23.110;2023-11-19T01:02:23;0.30;;;0.30;;
39362;SDS011;25088;43.238;23.110;2023-11-19T01:04:49;0.30;;;0.30;;
39362;SDS011;25088;43.238;23.110;2023-11-19T01:07:15;0.30;;;0.30;;
39362;SDS011;25088;43.238;23.110;2023-11-19T01:09:41;0.30;;;0.30;;
39362;SDS011;25088;43.238;23.110;2023-11-19T01:12:07;0.30;;;0.30;;
39362;SDS011;25088;43.238;23.110;2023-11-19T01:14:34;0.30;;;0.30;;
39362;SDS011;25088;43.238;23.110;2023-11-19T01:17:00;0.30;;;0.30;;
39362;SDS011;25088;43.238;23.110;2023-11-19T01:19:26;0.30;;;0.30;;
39362;SDS011;25088;43.238;23.110;2023-11-19T01:21:53;0.30;;;0.30;;
39362;SDS011;25088;43.238;23.110;2023-11-19T01:24:19;0.30;;;0.30;;
39362;SDS011;25088;43.238;23.110;2023-11-19T01:26:44;0.30;;;0.30;;
39362;SDS011;25088;43.238;23.110;2023-11-19T01:29:14;0.30;;;0.30;;
39362;SDS011;25088;43.238;23.110;2023-11-19T01:31:40;0.30;;;0.30;;
39362;SDS011;25088;43.238;23.110;2023-11-19T01:34:10;0.30;;;0.30;;
39362;SDS011;25088;43.238;23.110;2023-11-19T01:36:36;0.30;;;0.30;;
39362;SDS011;25088;43.238;23.110;2023-11-19T01:39:02;0.30;;;0.30;;
39362;SDS011;25088;43.238;23.110;2023-11-19T01:41:29;0.30;;;0.30;;
39362;SDS011;25088;43.238;23.110;2023-11-19T01:43:55;0.30;;;0.30;;
39362;SDS011;25088;43.238;23.110;2023-11-19T01:46:20;0.30;;;0.30;;
39362;SDS011;25088;43.238;23.110;2023-11-19T01:48:46;0.40;;;0.40;;
39362;SDS011;25088;43.238;23.110;2023-11-19T01:51:12;0.30;;;0.30;;
39362;SDS011;25088;43.238;23.110;2023-11-19T01:53:41;0.30;;;0.30;;
39362;SDS011;25088;43.238;23.110;2023-11-19T01:56:08;0.30;;;0.30;;
39362;SDS011;25088;43.238;23.110;2023-11-19T01:58:35;0.30;;;0.30;;
39362;SDS011;25088;43.238;23.110;2023-11-19T02:01:01;0.30;;;0.30;;
39362;SDS011;25088;43.238;23.110;2023-11-19T02:03:30;0.30;;;0.30;;
39362;SDS011;25088;43.238;23.110;2023-11-19T02:05:57;0.30;;;0.30;;
39362;SDS011;25088;43.238;23.110;2023-11-19T02:08:24;0.30;;;0.30;;
39362;SDS011;25088;43.238;23.110;2023-11-19T02:10:49;0.32;;;0.32;;
39362;SDS011;25088;43.238;23.110;2023-11-19T02:13:14;0.30;;;0.30;;
39362;SDS011;25088;43.238;23.110;2023-11-19T02:15:41;0.30;;;0.30;;
39362;SDS011;25088;43.238;23.110;2023-11-19T02:18:28;0.30;;;0.30;;
39362;SDS011;25088;43.238;23.110;2023-11-19T02:20:54;0.40;;;0.40;;
39362;SDS011;25088;43.238;23.110;2023-11-19T02:23:25;0.40;;;0.40;;
39362;SDS011;25088;43.238;23.110;2023-11-19T02:28:28;0.30;;;0.30;;
39362;SDS011;25088;43.238;23.110;2023-11-19T02:30:54;0.30;;;0.30;;
39362;SDS011;25088;43.238;23.110;2023-11-19T02:33:19;0.30;;;0.30;;
39362;SDS011;25088;43.238;23.110;2023-11-19T02:35:45;0.30;;;0.30;;
39362;SDS011;25088;43.238;23.110;2023-11-19T02:38:11;0.40;;;0.40;;
39362;SDS011;25088;43.238;23.110;2023-11-19T02:40:36;0.30;;;0.30;;
39362;SDS011;25088;43.238;23.110;2023-11-19T02:43:01;0.30;;;0.30;;
39362;SDS011;25088;43.238;23.110;2023-11-19T02:45:29;0.35;;;0.35;;
39362;SDS011;25088;43.238;23.110;2023-11-19T02:47:56;0.30;;;0.30;;
39362;SDS011;25088;43.238;23.110;2023-11-19T02:50:22;0.30;;;0.30;;
39362;SDS011;25088;43.238;23.110;2023-11-19T02:52:51;0.32;;;0.32;;
39362;SDS011;25088;43.238;23.110;2023-11-19T02:55:18;0.40;;;0.40;;
39362;SDS011;25088;43.238;23.110;2023-11-19T02:57:44;0.30;;;0.30;;
39362;SDS011;25088;43.238;23.110;2023-11-19T03:00:17;0.30;;;0.30;;
39362;SDS011;25088;43.238;23.110;2023-11-19T03:02:44;0.30;;;0.30;;
39362;SDS011;25088;43.238;23.110;2023-11-19T03:05:24;0.30;;;0.30;;
39362;SDS011;25088;43.238;23.110;2023-11-19T03:07:51;0.40;;;0.40;;
39362;SDS011;25088;43.238;23.110;2023-11-19T03:10:17;0.35;;;0.35;;
39362;SDS011;25088;43.238;23.110;2023-11-19T03:12:43;0.40;;;0.40;;
39362;SDS011;25088;43.238;23.110;2023-11-19T03:15:10;0.40;;;0.40;;
39362;SDS011;25088;43.238;23.110;2023-11-19T03:17:39;0.40;;;0.40;;
39362;SDS011;25088;43.238;23.110;2023-11-19T03:20:06;0.40;;;0.40;;
39362;SDS011;25088;43.238;23.110;2023-11-19T03:22:34;0.40;;;0.40;;
39362;SDS011;25088;43.238;23.110;2023-11-19T03:25:01;0.40;;;0.40;;
39362;SDS011;25088;43.238;23.110;2023-11-19T03:27:27;0.40;;;0.40;;
39362;SDS011;25088;43.238;23.110;2023-11-19T03:29:52;0.40;;;0.40;;
39362;SDS011;25088;43.238;23.110;2023-11-19T03:32:18;0.40;;;0.40;;
39362;SDS011;25088;43.238;23.110;2023-11-19T03:34:43;0.40;;;0.40;;
39362;SDS011;25088;43.238;23.110;2023-11-19T03:37:09;0.40;;;0.40;;
39362;SDS011;25088;43.238;23.110;2023-11-19T03:39:34;0.50;;;0.50;;
39362;SDS011;25088;43.238;23.110;2023-11-19T03:42:00;0.50;;;0.50;;
39362;SDS011;25088;43.238;23.110;2023-11-19T03:44:26;0.40;;;0.40;;
39362;SDS011;25088;43.238;23.110;2023-11-19T03:46:52;0.50;;;0.50;;
39362;SDS011;25088;43.238;23.110;2023-11-19T03:49:18;0.40;;;0.40;;
39362;SDS011;25088;43.238;23.110;2023-11-19T03:51:43;0.50;;;0.50;;
39362;SDS011;25088;43.238;23.110;2023-11-19T03:54:08;0.50;;;0.50;;
39362;SDS011;25088;43.238;23.110;2023-11-19T03:56:34;0.50;;;0.50;;
39362;SDS011;25088;43.238;23.110;2023-11-19T03:59:00;0.50;;;0.50;;
39362;SDS011;25088;43.238;23.110;2023-11-19T04:01:25;0.50;;;0.50;;
39362;SDS011;25088;43.238;23.110;2023-11-19T04:03:51;0.50;;;0.50;;
39362;SDS011;25088;43.238;23.110;2023-11-19T04:06:16;0.50;;;0.50;;
39362;SDS011;25088;43.238;23.110;2023-11-19T04:08:42;0.50;;;0.50;;
39362;SDS011;25088;43.238;23.110;2023-11-19T04:11:07;0.50;;;0.50;;
39362;SDS011;25088;43.238;23.110;2023-11-19T04:13:33;0.50;;;0.50;;
39362;SDS011;25088;43.238;23.110;2023-11-19T04:15:59;0.50;;;0.50;;
39362;SDS011;25088;43.238;23.110;2023-11-19T04:18:25;0.50;;;0.50;;
39362;SDS011;25088;43.238;23.110;2023-11-19T04:20:50;0.52;;;0.52;;
39362;SDS011;25088;43.238;23.110;2023-11-19T04:23:16;0.50;;;0.50;;
39362;SDS011;25088;43.238;23.110;2023-11-19T04:25:41;0.60;;;0.60;;
39362;SDS011;25088;43.238;23.110;2023-11-19T04:28:07;0.50;;;0.50;;
39362;SDS011;25088;43.238;23.110;2023-11-19T04:30:33;0.57;;;0.57;;
39362;SDS011;25088;43.238;23.110;2023-11-19T04:32:59;0.50;;;0.50;;
39362;SDS011;25088;43.238;23.110;2023-11-19T04:35:24;0.57;;;0.57;;
39362;SDS011;25088;43.238;23.110;2023-11-19T04:37:51;0.57;;;0.57;;
39362;SDS011;25088;43.238;23.110;2023-11-19T04:40:16;0.60;;;0.60;;
39362;SDS011;25088;43.238;23.110;2023-11-19T04:42:43;0.50;;;0.50;;
39362;SDS011;25088;43.238;23.110;2023-11-19T04:45:09;0.52;;;0.52;;
39362;SDS011;25088;43.238;23.110;2023-11-19T04:47:35;0.55;;;0.55;;
39362;SDS011;25088;43.238;23.110;2023-11-19T04:50:01;0.50;;;0.50;;
39362;SDS011;25088;43.238;23.110;2023-11-19T04:52:28;0.50;;;0.50;;
39362;SDS011;25088;43.238;23.110;2023-11-19T04:54:53;0.50;;;0.50;;
39362;SDS011;25088;43.238;23.110;2023-11-19T04:57:19;0.50;;;0.50;;
39362;SDS011;25088;43.238;23.110;2023-11-19T04:59:44;0.50;;;0.50;;
39362;SDS011;25088;43.238;23.110;2023-11-19T05:02:10;0.50;;;0.50;;
39362;SDS011;25088;43.238;23.110;2023-11-19T05:04:36;0.50;;;0.50;;
39362;SDS011;25088;43.238;23.110;2023-11-19T05:07:02;0.60;;;0.60;;
39362;SDS011;25088;43.238;23.110;2023-11-19T05:09:28;0.60;;;0.60;;
39362;SDS011;25088;43.238;23.110;2023-11-19T05:11:54;0.50;;;0.50;;
39362;SDS011;25088;43.238;23.110;2023-11-19T05:14:19;0.60;;;0.60;;
39362;SDS011;25088;43.238;23.110;2023-11-19T05:16:45;0.50;;;0.50;;
39362;SDS011;25088;43.238;23.110;2023-11-19T05:19:11;0.55;;;0.55;;
39362;SDS011;25088;43.238;23.110;2023-11-19T05:21:36;0.55;;;0.55;;
39362;SDS011;25088;43.238;23.110;2023-11-19T05:24:02;0.50;;;0.50;;
39362;SDS011;25088;43.238;23.110;2023-11-19T05:26:30;0.60;;;0.60;;
39362;SDS011;25088;43.238;23.110;2023-11-19T05:28:56;0.60;;;0.60;;
39362;SDS011;25088;43.238;23.110;2023-11-19T05:31:22;0.50;;;0.50;;
39362;SDS011;25088;43.238;23.110;2023-11-19T05:33:47;0.60;;;0.60;;
39362;SDS011;25088;43.238;23.110;2023-11-19T05:36:12;0.60;;;0.60;;
39362;SDS011;25088;43.238;23.110;2023-11-19T05:38:38;0.60;;;0.60;;
39362;SDS011;25088;43.238;23.110;2023-11-19T05:41:04;0.60;;;0.60;;
39362;SDS011;25088;43.238;23.110;2023-11-19T05:43:30;0.50;;;0.50;;
39362;SDS011;25088;43.238;23.110;2023-11-19T05:45:56;0.60;;;0.60;;
39362;SDS011;25088;43.238;23.110;2023-11-19T05:48:21;0.60;;;0.60;;
39362;SDS011;25088;43.238;23.110;2023-11-19T05:50:47;0.60;;;0.60;;
39362;SDS011;25088;43.238;23.110;2023-11-19T05:53:15;0.55;;;0.55;;
39362;SDS011;25088;43.238;23.110;2023-11-19T05:55:40;0.60;;;0.60;;
39362;SDS011;25088;43.238;23.110;2023-11-19T05:58:14;0.52;;;0.52;;
39362;SDS011;25088;43.238;23.110;2023-11-19T06:00:39;0.60;;;0.60;;
39362;SDS011;25088;43.238;23.110;2023-11-19T06:03:08;0.50;;;0.50;;
39362;SDS011;25088;43.238;23.110;2023-11-19T06:05:33;0.50;;;0.50;;
39362;SDS011;25088;43.238;23.110;2023-11-19T06:07:59;0.50;;;0.50;;
39362;SDS011;25088;43.238;23.110;2023-11-19T06:10:24;0.50;;;0.50;;
39362;SDS011;25088;43.238;23.110;2023-11-19T06:12:59;0.40;;;0.40;;
39362;SDS011;25088;43.238;23.110;2023-11-19T06:15:28;0.40;;;0.40;;
39362;SDS011;25088;43.238;23.110;2023-11-19T06:17:53;0.40;;;0.40;;
39362;SDS011;25088;43.238;23.110;2023-11-19T06:20:20;0.40;;;0.40;;
39362;SDS011;25088;43.238;23.110;2023-11-19T06:22:45;0.30;;;0.30;;
39362;SDS011;25088;43.238;23.110;2023-11-19T06:25:11;0.40;;;0.40;;
39362;SDS011;25088;43.238;23.110;2023-11-19T06:27:40;0.40;;;0.40;;
39362;SDS011;25088;43.238;23.110;2023-11-19T06:30:06;0.30;;;0.30;;
39362;SDS011;25088;43.238;23.110;2023-11-19T06:32:32;0.30;;;0.30;;
39362;SDS011;25088;43.238;23.110;2023-11-19T06:34:58;0.30;;;0.30;;
39362;SDS011;25088;43.238;23.110;2023-11-19T06:37:23;0.30;;;0.30;;
39362;SDS011;25088;43.238;23.110;2023-11-19T06:39:49;0.30;;;0.30;;
39362;SDS011;25088;43.238;23.110;2023-11-19T06:42:14;0.20;;;0.20;;
39362;SDS011;25088;43.238;23.110;2023-11-19T06:44:40;0.22;;;0.22;;
39362;SDS011;25088;43.238;23.110;2023-11-19T06:47:05;0.30;;;0.30;;
39362;SDS011;25088;43.238;23.110;2023-11-19T06:49:31;0.30;;;0.30;;
39362;SDS011;25088;43.238;23.110;2023-11-19T06:51:57;0.30;;;0.30;;
39362;SDS011;25088;43.238;23.110;2023-11-19T06:54:22;0.20;;;0.20;;
39362;SDS011;25088;43.238;23.110;2023-11-19T06:56:48;0.20;;;0.20;;
39362;SDS011;25088;43.238;23.110;2023-11-19T06:59:13;0.20;;;0.20;;
39362;SDS011;25088;43.238;23.110;2023-11-19T07:01:39;0.20;;;0.20;;
39362;SDS011;25088;43.238;23.110;2023-11-19T07:04:06;0.20;;;0.20;;
39362;SDS011;25088;43.238;23.110;2023-11-19T07:06:35;0.20;;;0.20;;
39362;SDS011;25088;43.238;23.110;2023-11-19T07:09:01;0.20;;;0.20;;
39362;SDS011;25088;43.238;23.110;2023-11-19T07:11:37;0.20;;;0.20;;
39362;SDS011;25088;43.238;23.110;2023-11-19T07:14:04;0.10;;;0.10;;
39362;SDS011;25088;43.238;23.110;2023-11-19T07:16:31;0.20;;;0.20;;
39362;SDS011;25088;43.238;23.110;2023-11-19T07:19:02;0.10;;;0.10;;
39362;SDS011;25088;43.238;23.110;2023-11-19T07:21:28;0.10;;;0.10;;
39362;SDS011;25088;43.238;23.110;2023-11-19T07:23:54;0.10;;;0.10;;
39362;SDS011;25088;43.238;23.110;2023-11-19T07:26:20;0.10;;;0.10;;
39362;SDS011;25088;43.238;23.110;2023-11-19T07:28:46;0.10;;;0.10;;
39362;SDS011;25088;43.238;23.110;2023-11-19T07:31:12;0.10;;;0.10;;
39362;SDS011;25088;43.238;23.110;2023-11-19T07:33:39;0.10;;;0.10;;
39362;SDS011;25088;43.238;23.110;2023-11-19T07:36:05;0.10;;;0.10;;
39362;SDS011;25088;43.238;23.110;2023-11-19T07:38:30;0.10;;;0.10;;
39362;SDS011;25088;43.238;23.110;2023-11-19T07:40:56;0.10;;;0.10;;
39362;SDS011;25088;43.238;23.110;2023-11-19T07:43:21;0.10;;;0.10;;
39362;SDS011;25088;43.238;23.110;2023-11-19T07:45:47;0.10;;;0.10;;
39362;SDS011;25088;43.238;23.110;2023-11-19T07:48:12;0.10;;;0.10;;
39362;SDS011;25088;43.238;23.110;2023-11-19T07:50:38;0.10;;;0.10;;
39362;SDS011;25088;43.238;23.110;2023-11-19T07:53:05;0.10;;;0.10;;
39362;SDS011;25088;43.238;23.110;2023-11-19T07:55:34;0.00;;;0.00;;
39362;SDS011;25088;43.238;23.110;2023-11-19T07:57:59;0.00;;;0.00;;
39362;SDS011;25088;43.238;23.110;2023-11-19T08:00:25;0.10;;;0.10;;
39362;SDS011;25088;43.238;23.110;2023-11-19T08:02:50;0.05;;;0.05;;
39362;SDS011;25088;43.238;23.110;2023-11-19T08:05:16;0.10;;;0.10;;
39362;SDS011;25088;43.238;23.110;2023-11-19T08:07:41;0.10;;;0.10;;
39362;SDS011;25088;43.238;23.110;2023-11-19T08:10:07;0.00;;;0.00;;
39362;SDS011;25088;43.238;23.110;2023-11-19T08:12:36;0.00;;;0.00;;
39362;SDS011;25088;43.238;23.110;2023-11-19T08:15:02;0.10;;;0.10;;
39362;SDS011;25088;43.238;23.110;2023-11-19T08:17:29;0.10;;;0.10;;
39362;SDS011;25088;43.238;23.110;2023-11-19T08:19:55;0.00;;;0.00;;
39362;SDS011;25088;43.238;23.110;2023-11-19T08:22:20;0.10;;;0.10;;
39362;SDS011;25088;43.238;23.110;2023-11-19T08:24:47;0.10;;;0.10;;
39362;SDS011;25088;43.238;23.110;2023-11-19T08:27:13;0.00;;;0.00;;
39362;SDS011;25088;43.238;23.110;2023-11-19T08:29:38;0.00;;;0.00;;
39362;SDS011;25088;43.238;23.110;2023-11-19T08:32:04;0.00;;;0.00;;
39362;SDS011;25088;43.238;23.110;2023-11-19T08:34:31;0.00;;;0.00;;
39362;SDS011;25088;43.238;23.110;2023-11-19T08:36:56;0.10;;;0.10;;
39362;SDS011;25088;43.238;23.110;2023-11-19T08:39:22;0.00;;;0.00;;
39362;SDS011;25088;43.238;23.110;2023-11-19T08:41:47;0.00;;;0.00;;
39362;SDS011;25088;43.238;23.110;2023-11-19T08:44:13;0.00;;;0.00;;
39362;SDS011;25088;43.238;23.110;2023-11-19T08:46:45;0.00;;;0.00;;
39362;SDS011;25088;43.238;23.110;2023-11-19T08:49:12;0.00;;;0.00;;
39362;SDS011;25088;43.238;23.110;2023-11-19T08:51:37;0.00;;;0.00;;
39362;SDS011;25088;43.238;23.110;2023-11-19T08:54:03;0.00;;;0.00;;
39362;SDS011;25088;43.238;23.110;2023-11-19T08:56:28;0.00;;;0.00;;
39362;SDS011;25088;43.238;23.110;2023-11-19T08:58:57;0.00;;;0.00;;
39362;SDS011;25088;43.238;23.110;2023-11-19T09:01:23;0.00;;;0.00;;
39362;SDS011;25088;43.238;23.110;2023-11-19T09:03:49;0.00;;;0.00;;
39362;SDS011;25088;43.238;23.110;2023-11-19T09:06:15;0.00;;;0.00;;
39362;SDS011;25088;43.238;23.110;2023-11-19T09:08:41;0.00;;;0.00;;
39362;SDS011;25088;43.238;23.110;2023-11-19T09:11:07;0.00;;;0.00;;
39362;SDS011;25088;43.238;23.110;2023-11-19T09:13:34;0.00;;;0.00;;
39362;SDS011;25088;43.238;23.110;2023-11-19T09:16:00;0.00;;;0.00;;
39362;SDS011;25088;43.238;23.110;2023-11-19T09:18:28;0.00;;;0.00;;
39362;SDS011;25088;43.238;23.110;2023-11-19T09:20:54;0.00;;;0.00;;
39362;SDS011;25088;43.238;23.110;2023-11-19T09:23:20;0.00;;;0.00;;
39362;SDS011;25088;43.238;23.110;2023-11-19T09:25:45;0.00;;;0.00;;
39362;SDS011;25088;43.238;23.110;2023-11-19T09:28:11;0.00;;;0.00;;
39362;SDS011;25088;43.238;23.110;2023-11-19T09:30:36;0.00;;;0.00;;
39362;SDS011;25088;43.238;23.110;2023-11-19T09:33:02;0.00;;;0.00;;
39362;SDS011;25088;43.238;23.110;2023-11-19T09:35:27;0.00;;;0.00;;
39362;SDS011;25088;43.238;23.110;2023-11-19T09:37:53;0.03;;;0.03;;
39362;SDS011;25088;43.238;23.110;2023-11-19T09:40:18;0.00;;;0.00;;
39362;SDS011;25088;43.238;23.110;2023-11-19T09:42:45;0.00;;;0.00;;
39362;SDS011;25088;43.238;23.110;2023-11-19T09:45:14;0.00;;;0.00;;
39362;SDS011;25088;43.238;23.110;2023-11-19T09:47:43;0.00;;;0.00;;
39362;SDS011;25088;43.238;23.110;2023-11-19T09:50:17;0.00;;;0.00;;
39362;SDS011;25088;43.238;23.110;2023-11-19T09:52:44;0.00;;;0.00;;
39362;SDS011;25088;43.238;23.110;2023-11-19T09:55:10;0.00;;;0.00;;
39362;SDS011;25088;43.238;23.110;2023-11-19T09:57:36;0.00;;;0.00;;
39362;SDS011;25088;43.238;23.110;2023-11-19T10:00:03;0.00;;;0.00;;
39362;SDS011;25088;43.238;23.110;2023-11-19T10:02:33;0.00;;;0.00;;
39362;SDS011;25088;43.238;23.110;2023-11-19T10:05:02;0.00;;;0.00;;
39362;SDS011;25088;43.238;23.110;2023-11-19T10:07:31;0.00;;;0.00;;
39362;SDS011;25088;43.238;23.110;2023-11-19T10:10:01;0.00;;;0.00;;
39362;SDS011;25088;43.238;23.110;2023-11-19T10:12:29;0.00;;;0.00;;
39362;SDS011;25088;43.238;23.110;2023-11-19T10:14:58;0.00;;;0.00;;
39362;SDS011;25088;43.238;23.110;2023-11-19T10:17:33;0.00;;;0.00;;
39362;SDS011;25088;43.238;23.110;2023-11-19T10:20:00;0.00;;;0.00;;
39362;SDS011;25088;43.238;23.110;2023-11-19T10:22:27;0.00;;;0.00;;
39362;SDS011;25088;43.238;23.110;2023-11-19T10:24:52;0.00;;;0.00;;
39362;SDS011;25088;43.238;23.110;2023-11-19T10:27:18;0.00;;;0.00;;
39362;SDS011;25088;43.238;23.110;2023-11-19T10:29:47;0.00;;;0.00;;
39362;SDS011;25088;43.238;23.110;2023-11-19T10:32:13;0.00;;;0.00;;
39362;SDS011;25088;43.238;23.110;2023-11-19T10:34:42;0.10;;;0.10;;
39362;SDS011;25088;43.238;23.110;2023-11-19T10:37:08;0.00;;;0.00;;
39362;SDS011;25088;43.238;23.110;2023-11-19T10:39:52;0.00;;;0.00;;
39362;SDS011;25088;43.238;23.110;2023-11-19T10:42:19;0.00;;;0.00;;
39362;SDS011;25088;43.238;23.110;2023-11-19T10:44:45;0.00;;;0.00;;
39362;SDS011;25088;43.238;23.110;2023-11-19T10:47:11;0.00;;;0.00;;
39362;SDS011;25088;43.238;23.110;2023-11-19T10:49:38;0.00;;;0.00;;
39362;SDS011;25088;43.238;23.110;2023-11-19T10:52:05;0.00;;;0.00;;
39362;SDS011;25088;43.238;23.110;2023-11-19T10:54:32;0.00;;;0.00;;
39362;SDS011;25088;43.238;23.110;2023-11-19T10:56:59;0.00;;;0.00;;
39362;SDS011;25088;43.238;23.110;2023-11-19T10:59:30;0.00;;;0.00;;
39362;SDS011;25088;43.238;23.110;2023-11-19T11:02:00;0.00;;;0.00;;
39362;SDS011;25088;43.238;23.110;2023-11-19T11:04:36;0.00;;;0.00;;
39362;SDS011;25088;43.238;23.110;2023-11-19T11:07:04;0.00;;;0.00;;
39362;SDS011;25088;43.238;23.110;2023-11-19T11:09:32;0.00;;;0.00;;
39362;SDS011;25088;43.238;23.110;2023-11-19T11:11:58;0.00;;;0.00;;
39362;SDS011;25088;43.238;23.110;2023-11-19T11:14:25;0.00;;;0.00;;
39362;SDS011;25088;43.238;23.110;2023-11-19T11:16:52;0.00;;;0.00;;
39362;SDS011;25088;43.238;23.110;2023-11-19T11:19:18;0.00;;;0.00;;
39362;SDS011;25088;43.238;23.110;2023-11-19T11:21:47;0.00;;;0.00;;
39362;SDS011;25088;43.238;23.110;2023-11-19T11:35:55;0.00;;;0.00;;
39362;SDS011;25088;43.238;23.110;2023-11-19T11:38:37;0.00;;;0.00;;
39362;SDS011;25088;43.238;23.110;2023-11-19T11:43:50;0.00;;;0.00;;
39362;SDS011;25088;43.238;23.110;2023-11-19T11:49:02;0.00;;;0.00;;
39362;SDS011;25088;43.238;23.110;2023-11-19T11:54:31;0.00;;;0.00;;
39362;SDS011;25088;43.238;23.110;2023-11-19T11:57:09;0.00;;;0.00;;
39362;SDS011;25088;43.238;23.110;2023-11-19T11:59:37;0.00;;;0.00;;
39362;SDS011;25088;43.238;23.110;2023-11-19T12:02:05;0.00;;;0.00;;
39362;SDS011;25088;43.238;23.110;2023-11-19T12:04:33;0.00;;;0.00;;
39362;SDS011;25088;43.238;23.110;2023-11-19T12:07:06;0.00;;;0.00;;
39362;SDS011;25088;43.238;23.110;2023-11-19T12:09:38;0.00;;;0.00;;
39362;SDS011;25088;43.238;23.110;2023-11-19T12:20:05;0.00;;;0.00;;
39362;SDS011;25088;43.238;23.110;2023-11-19T12:22:35;0.00;;;0.00;;
39362;SDS011;25088;43.238;23.110;2023-11-19T12:25:02;0.00;;;0.00;;
39362;SDS011;25088;43.238;23.110;2023-11-19T12:27:29;0.00;;;0.00;;
39362;SDS011;25088;43.238;23.110;2023-11-19T12:29:55;0.00;;;0.00;;
39362;SDS011;25088;43.238;23.110;2023-11-19T12:32:22;0.00;;;0.00;;
39362;SDS011;25088;43.238;23.110;2023-11-19T12:34:47;0.00;;;0.00;;
39362;SDS011;25088;43.238;23.110;2023-11-19T12:37:14;0.00;;;0.00;;
39362;SDS011;25088;43.238;23.110;2023-11-19T12:39:40;0.00;;;0.00;;
39362;SDS011;25088;43.238;23.110;2023-11-19T12:42:05;0.00;;;0.00;;
39362;SDS011;25088;43.238;23.110;2023-11-19T12:44:31;0.00;;;0.00;;
39362;SDS011;25088;43.238;23.110;2023-11-19T12:47:00;0.00;;;0.00;;
39362;SDS011;25088;43.238;23.110;2023-11-19T12:49:27;0.00;;;0.00;;
39362;SDS011;25088;43.238;23.110;2023-11-19T12:51:52;0.00;;;0.00;;
39362;SDS011;25088;43.238;23.110;2023-11-19T12:54:18;0.00;;;0.00;;
39362;SDS011;25088;43.238;23.110;2023-11-19T12:56:52;0.00;;;0.00;;
39362;SDS011;25088;43.238;23.110;2023-11-19T12:59:18;0.00;;;0.00;;
39362;SDS011;25088;43.238;23.110;2023-11-19T13:04:39;0.00;;;0.00;;
39362;SDS011;25088;43.238;23.110;2023-11-19T13:07:04;0.00;;;0.00;;
39362;SDS011;25088;43.238;23.110;2023-11-19T13:09:30;0.00;;;0.00;;
39362;SDS011;25088;43.238;23.110;2023-11-19T13:11:56;0.00;;;0.00;;
39362;SDS011;25088;43.238;23.110;2023-11-19T13:14:22;0.00;;;0.00;;
39362;SDS011;25088;43.238;23.110;2023-11-19T13:16:48;0.00;;;0.00;;
39362;SDS011;25088;43.238;23.110;2023-11-19T13:19:14;0.00;;;0.00;;
39362;SDS011;25088;43.238;23.110;2023-11-19T13:21:44;0.00;;;0.00;;
39362;SDS011;25088;43.238;23.110;2023-11-19T13:24:13;0.00;;;0.00;;
39362;SDS011;25088;43.238;23.110;2023-11-19T13:26:39;0.00;;;0.00;;
39362;SDS011;25088;43.238;23.110;2023-11-19T13:29:04;0.05;;;0.05;;
39362;SDS011;25088;43.238;23.110;2023-11-19T13:31:30;0.00;;;0.00;;
39362;SDS011;25088;43.238;23.110;2023-11-19T13:33:58;0.00;;;0.00;;
39362;SDS011;25088;43.238;23.110;2023-11-19T13:36:24;0.03;;;0.03;;
39362;SDS011;25088;43.238;23.110;2023-11-19T13:38:51;0.00;;;0.00;;
39362;SDS011;25088;43.238;23.110;2023-11-19T13:41:16;0.00;;;0.00;;
39362;SDS011;25088;43.238;23.110;2023-11-19T13:43:42;0.00;;;0.00;;
39362;SDS011;25088;43.238;23.110;2023-11-19T13:46:08;0.10;;;0.10;;
39362;SDS011;25088;43.238;23.110;2023-11-19T13:48:36;0.10;;;0.10;;
39362;SDS011;25088;43.238;23.110;2023-11-19T13:51:02;0.10;;;0.10;;
39362;SDS011;25088;43.238;23.110;2023-11-19T13:53:27;0.10;;;0.10;;
39362;SDS011;25088;43.238;23.110;2023-11-19T13:55:53;0.10;;;0.10;;
39362;SDS011;25088;43.238;23.110;2023-11-19T13:58:18;0.10;;;0.10;;
39362;SDS011;25088;43.238;23.110;2023-11-19T14:00:44;0.10;;;0.10;;
39362;SDS011;25088;43.238;23.110;2023-11-19T14:03:09;0.10;;;0.10;;
39362;SDS011;25088;43.238;23.110;2023-11-19T14:05:36;0.10;;;0.10;;
39362;SDS011;25088;43.238;23.110;2023-11-19T14:08:02;0.10;;;0.10;;
39362;SDS011;25088;43.238;23.110;2023-11-19T14:10:28;0.10;;;0.10;;
39362;SDS011;25088;43.238;23.110;2023-11-19T14:12:54;0.10;;;0.10;;
39362;SDS011;25088;43.238;23.110;2023-11-19T14:15:19;0.10;;;0.10;;
39362;SDS011;25088;43.238;23.110;2023-11-19T14:17:45;0.10;;;0.10;;
39362;SDS011;25088;43.238;23.110;2023-11-19T14:20:10;0.20;;;0.20;;
39362;SDS011;25088;43.238;23.110;2023-11-19T14:22:40;0.10;;;0.10;;
39362;SDS011;25088;43.238;23.110;2023-11-19T14:25:08;0.10;;;0.10;;
39362;SDS011;25088;43.238;23.110;2023-11-19T14:27:38;0.10;;;0.10;;
39362;SDS011;25088;43.238;23.110;2023-11-19T14:30:05;0.15;;;0.15;;
39362;SDS011;25088;43.238;23.110;2023-11-19T14:32:32;0.10;;;0.10;;
39362;SDS011;25088;43.238;23.110;2023-11-19T14:34:58;0.10;;;0.10;;
39362;SDS011;25088;43.238;23.110;2023-11-19T14:37:23;0.20;;;0.20;;
39362;SDS011;25088;43.238;23.110;2023-11-19T14:39:49;0.20;;;0.20;;
39362;SDS011;25088;43.238;23.110;2023-11-19T14:42:16;0.20;;;0.20;;
39362;SDS011;25088;43.238;23.110;2023-11-19T14:44:42;0.13;;;0.13;;
39362;SDS011;25088;43.238;23.110;2023-11-19T14:47:07;0.20;;;0.20;;
39362;SDS011;25088;43.238;23.110;2023-11-19T14:49:34;0.20;;;0.20;;
39362;SDS011;25088;43.238;23.110;2023-11-19T14:52:00;0.20;;;0.20;;
39362;SDS011;25088;43.238;23.110;2023-11-19T14:54:25;0.20;;;0.20;;
39362;SDS011;25088;43.238;23.110;2023-11-19T14:56:51;0.20;;;0.20;;
39362;SDS011;25088;43.238;23.110;2023-11-19T14:59:17;0.20;;;0.20;;
39362;SDS011;25088;43.238;23.110;2023-11-19T15:01:44;0.20;;;0.20;;
39362;SDS011;25088;43.238;23.110;2023-11-19T15:04:10;0.20;;;0.20;;